Time;durP1;ratioP1;P1;durP2;ratioP2;P2;SDS_P1;SDS_P2;PMS_P1;PMS_P2;Temp;Humidity;BMP_temperature;BMP_pressure;BME280_temperature;BME280_humidity;BME280_pressure;Samples;Min_cycle;Max_cycle;Signal;HPM_P1;HPM_P2
2022/12/05 00:01:50;;;;;;;38.45;21.05;;;5.40;99.90;;;;;;5062999;28;20232;-74
2022/12/05 00:04:36;;;;;;;34.67;20.27;;;5.40;99.90;;;;;;5061160;28;20684;-74
2022/12/05 00:07:21;;;;;;;34.30;19.88;;;5.40;99.90;;;;;;5061554;28;20423;-74
2022/12/05 00:10:08;;;;;;;31.85;21.15;;;5.50;99.90;;;;;;5070762;28;20222;-75
2022/12/05 00:12:53;;;;;;;32.63;20.55;;;5.40;99.90;;;;;;5050697;28;20232;-75
2022/12/05 00:15:40;;;;;;;36.17;21.17;;;5.30;99.90;;;;;;5061405;28;20205;-75
2022/12/05 00:18:27;;;;;;;35.42;21.15;;;5.40;99.90;;;;;;5059469;28;20211;-75
2022/12/05 00:21:16;;;;;;;32.55;20.40;;;5.40;99.90;;;;;;5056407;28;20216;-74
2022/12/05 00:24:02;;;;;;;33.10;18.42;;;5.40;99.90;;;;;;5051807;28;20720;-75
2022/12/05 00:26:47;;;;;;;34.40;20.25;;;5.40;99.90;;;;;;5067471;28;20724;-75
2022/12/05 00:29:33;;;;;;;33.85;19.25;;;5.40;99.90;;;;;;5057072;28;20203;-74
2022/12/05 00:32:19;;;;;;;40.45;20.48;;;5.40;99.90;;;;;;5050636;28;20617;-75
2022/12/05 00:35:06;;;;;;;33.33;19.38;;;5.40;99.90;;;;;;5051994;28;20196;-74
2022/12/05 00:37:52;;;;;;;30.88;19.48;;;5.30;99.90;;;;;;5047536;28;20205;-75
2022/12/05 00:40:37;;;;;;;27.30;17.48;;;5.30;99.90;;;;;;5048313;28;20241;-75
2022/12/05 00:43:23;;;;;;;28.95;17.48;;;5.40;99.90;;;;;;5056466;28;20685;-75
2022/12/05 00:46:10;;;;;;;30.30;17.60;;;5.50;99.90;;;;;;5055550;28;20200;-74
2022/12/05 00:48:58;;;;;;;31.40;19.23;;;5.40;99.90;;;;;;5051636;28;20205;-74
2022/12/05 00:51:44;;;;;;;34.80;19.40;;;5.40;99.90;;;;;;5051869;28;20224;-74
2022/12/05 00:54:30;;;;;;;32.10;19.52;;;5.30;99.90;;;;;;5042570;28;20573;-75
2022/12/05 00:57:15;;;;;;;27.65;17.60;;;5.30;99.90;;;;;;5059381;28;20258;-74
2022/12/05 01:00:01;;;;;;;28.83;19.60;;;5.30;99.90;;;;;;5057919;28;20229;-74
2022/12/05 01:02:47;;;;;;;31.08;19.27;;;5.30;99.90;;;;;;5054647;28;20282;-74
2022/12/05 01:05:34;;;;;;;33.47;18.88;;;5.30;99.90;;;;;;5058610;28;20698;-74
2022/12/05 01:08:21;;;;;;;37.22;19.25;;;5.30;99.90;;;;;;5058834;28;20208;-74
2022/12/05 01:11:08;;;;;;;31.52;19.35;;;5.20;99.90;;;;;;5070834;28;20200;-74
2022/12/05 01:13:54;;;;;;;30.50;18.65;;;5.10;99.90;;;;;;5049934;28;20228;-74
2022/12/05 01:16:42;;;;;;;26.20;17.58;;;5.10;99.90;;;;;;5062244;28;20201;-74
2022/12/05 01:19:29;;;;;;;33.38;20.17;;;5.20;99.90;;;;;;5059737;28;20294;-74
2022/12/05 01:22:16;;;;;;;32.97;19.35;;;5.30;99.90;;;;;;5055192;28;20268;-75
2022/12/05 01:25:04;;;;;;;35.70;17.85;;;5.20;99.90;;;;;;5050439;28;20287;-74
2022/12/05 01:27:49;;;;;;;28.73;19.00;;;5.10;99.90;;;;;;5056356;28;20899;-74
2022/12/05 01:30:39;;;;;;;31.95;17.50;;;5.10;99.90;;;;;;5050103;28;20297;-74
2022/12/05 01:33:24;;;;;;;35.42;20.15;;;5.20;99.90;;;;;;5048579;28;20218;-74
2022/12/05 01:36:11;;;;;;;32.75;17.63;;;5.20;99.90;;;;;;5049388;28;20318;-75
2022/12/05 01:38:57;;;;;;;32.83;18.05;;;5.30;99.90;;;;;;5047395;28;20583;-75
2022/12/05 01:41:47;;;;;;;38.53;19.50;;;5.30;99.90;;;;;;5052198;28;20693;-74
2022/12/05 01:45:00;;;;;;;34.85;18.25;;;5.30;99.90;;;;;;5045700;28;20204;-74
2022/12/05 01:47:46;;;;;;;35.97;18.67;;;5.30;99.90;;;;;;5046810;28;20677;-74
2022/12/05 01:50:32;;;;;;;34.78;19.80;;;5.30;99.90;;;;;;5051297;28;20204;-74
2022/12/05 01:53:18;;;;;;;32.10;18.00;;;5.30;99.90;;;;;;5045270;28;20220;-74
2022/12/05 01:56:04;;;;;;;32.10;18.70;;;5.30;99.90;;;;;;5051357;28;20266;-75
2022/12/05 01:58:53;;;;;;;33.92;18.88;;;5.30;99.90;;;;;;5049066;28;20571;-75
2022/12/05 02:01:40;;;;;;;43.28;19.10;;;5.30;99.90;;;;;;5044243;28;20263;-75
2022/12/05 02:04:27;;;;;;;43.63;20.45;;;5.40;99.90;;;;;;5047779;28;20281;-75
2022/12/05 02:07:12;;;;;;;37.00;18.80;;;5.40;99.90;;;;;;5045316;28;20208;-74
2022/12/05 02:09:58;;;;;;;32.83;18.40;;;5.40;99.90;;;;;;5051275;28;20221;-74
2022/12/05 02:12:44;;;;;;;37.60;19.80;;;5.40;99.90;;;;;;5043054;28;20233;-74
2022/12/05 02:15:38;;;;;;;39.97;21.08;;;5.40;99.90;;;;;;5051012;28;20336;-74
2022/12/05 02:18:33;;;;;;;47.72;20.67;;;5.40;99.90;;;;;;5046720;28;20288;-75
2022/12/05 02:21:52;;;;;;;38.53;19.73;;;5.40;99.90;;;;;;5052533;28;20228;-75
2022/12/05 02:24:55;;;;;;;37.45;20.08;;;5.40;99.90;;;;;;5027159;28;20693;-74
2022/12/05 02:28:09;;;;;;;48.22;20.77;;;5.40;99.90;;;;;;5056734;28;20259;-74
2022/12/05 02:30:59;;;;;;;35.95;19.63;;;5.40;99.90;;;;;;5050715;28;20678;-74
2022/12/05 02:33:50;;;;;;;49.90;21.33;;;5.50;99.90;;;;;;5049041;28;20256;-74
2022/12/05 02:36:42;;;;;;;40.08;21.20;;;5.40;99.90;;;;;;5059729;28;20204;-75
2022/12/05 02:39:36;;;;;;;42.38;21.40;;;5.40;99.90;;;;;;5058645;28;20225;-74
2022/12/05 02:42:28;;;;;;;47.55;22.20;;;5.40;99.90;;;;;;5054766;28;20223;-75
2022/12/05 02:45:16;;;;;;;36.92;20.83;;;5.40;99.90;;;;;;5046030;28;20255;-75
2022/12/05 02:48:04;;;;;;;44.90;22.27;;;5.40;99.90;;;;;;5048038;28;20213;-75
2022/12/05 02:50:53;;;;;;;44.80;22.63;;;5.40;99.90;;;;;;5049333;28;20201;-74
2022/12/05 02:53:42;;;;;;;35.30;20.67;;;5.50;99.90;;;;;;5050660;28;20209;-74
2022/12/05 02:56:29;;;;;;;40.25;21.60;;;5.50;99.90;;;;;;5046396;28;20197;-74
2022/12/05 02:59:15;;;;;;;42.28;20.35;;;5.40;99.90;;;;;;5052136;28;20205;-75
2022/12/05 03:02:00;;;;;;;48.35;21.60;;;5.40;99.90;;;;;;5048026;28;20275;-74
2022/12/05 03:04:47;;;;;;;41.42;21.55;;;5.30;99.90;;;;;;5048478;28;20290;-75
2022/12/05 03:07:33;;;;;;;34.33;20.77;;;5.30;99.90;;;;;;5051949;28;20209;-75
2022/12/05 03:10:22;;;;;;;44.25;21.10;;;5.20;99.90;;;;;;5048593;28;20730;-74
2022/12/05 03:13:11;;;;;;;39.25;21.80;;;5.10;99.90;;;;;;5046630;28;20270;-74
2022/12/05 03:16:02;;;;;;;41.25;21.95;;;5.20;99.90;;;;;;5054561;28;20200;-74
2022/12/05 03:18:51;;;;;;;38.65;22.05;;;5.20;99.90;;;;;;5051657;28;20209;-74
2022/12/05 03:21:46;;;;;;;56.67;24.15;;;5.30;99.90;;;;;;5046434;28;20775;-74
2022/12/05 03:24:37;;;;;;;47.88;22.20;;;5.10;99.90;;;;;;5055189;28;20252;-74
2022/12/05 03:27:27;;;;;;;100.97;24.50;;;5.10;99.90;;;;;;5052448;28;20286;-74
2022/12/05 03:30:16;;;;;;;84.75;23.73;;;4.90;99.90;;;;;;5057059;28;20663;-74
2022/12/05 03:33:07;;;;;;;51.40;24.42;;;4.70;99.90;;;;;;5047056;28;20605;-74
2022/12/05 03:36:00;;;;;;;63.83;25.55;;;4.60;99.90;;;;;;5048835;28;20227;-74
2022/12/05 03:38:51;;;;;;;52.55;25.48;;;4.50;99.90;;;;;;5050445;28;20209;-74
2022/12/05 03:41:42;;;;;;;69.57;26.98;;;4.50;99.90;;;;;;5051308;28;20360;-74
2022/12/05 03:44:34;;;;;;;67.35;25.02;;;4.50;99.90;;;;;;5062566;28;20204;-74
2022/12/05 03:47:25;;;;;;;54.17;25.42;;;4.60;99.90;;;;;;5058671;28;20263;-74
2022/12/05 03:50:19;;;;;;;56.97;26.65;;;4.70;99.90;;;;;;5056976;28;20201;-75
2022/12/05 03:53:08;;;;;;;79.25;25.02;;;4.80;99.90;;;;;;5048487;28;20236;-74
2022/12/05 03:56:01;;;;;;;61.22;25.90;;;4.80;99.90;;;;;;5071129;28;20231;-74
2022/12/05 03:58:51;;;;;;;65.63;26.92;;;4.70;99.90;;;;;;5065787;28;20323;-74
2022/12/05 04:01:40;;;;;;;57.30;25.55;;;4.70;99.90;;;;;;5059975;28;20240;-74
2022/12/05 04:04:29;;;;;;;50.70;25.55;;;4.80;99.90;;;;;;5066754;28;20696;-74
2022/12/05 04:07:18;;;;;;;43.65;23.38;;;4.80;99.90;;;;;;5060674;28;20205;-74
2022/12/05 04:10:09;;;;;;;45.90;24.08;;;4.90;99.90;;;;;;5062770;28;20677;-74
2022/12/05 04:13:16;;;;;;;42.63;24.42;;;4.90;99.90;;;;;;5062737;28;20259;-75
2022/12/05 04:19:17;;;;;;;45.45;22.10;;;5.00;99.90;;;;;;5057057;28;20250;-74
2022/12/05 04:22:02;;;;;;;60.65;23.30;;;5.00;99.90;;;;;;5052297;28;20226;-74
2022/12/05 04:27:59;;;;;;;43.90;22.42;;;4.90;99.90;;;;;;5048583;28;20272;-74
2022/12/05 04:30:48;;;;;;;47.38;25.17;;;4.80;99.90;;;;;;5049111;28;20199;-75
2022/12/05 04:33:41;;;;;;;47.80;23.48;;;4.80;99.90;;;;;;5046262;28;20229;-75
2022/12/05 04:36:32;;;;;;;52.95;22.60;;;4.80;99.90;;;;;;5051004;28;20268;-74
2022/12/05 04:39:22;;;;;;;42.08;20.65;;;4.90;99.90;;;;;;5060102;28;20302;-75
2022/12/05 04:42:11;;;;;;;43.20;22.17;;;4.80;99.90;;;;;;5051739;28;20748;-74
2022/12/05 04:45:01;;;;;;;38.58;20.40;;;4.70;99.90;;;;;;5053200;28;20878;-74
2022/12/05 04:47:53;;;;;;;41.17;20.30;;;4.70;99.90;;;;;;5054081;28;20328;-75
2022/12/05 04:50:41;;;;;;;43.90;21.95;;;4.80;99.90;;;;;;5049599;28;20201;-74
2022/12/05 04:53:31;;;;;;;38.40;20.63;;;4.80;99.90;;;;;;5045151;28;20283;-75
2022/12/05 04:56:18;;;;;;;37.20;19.85;;;4.90;99.90;;;;;;5045022;28;20205;-74
2022/12/05 04:59:04;;;;;;;37.08;19.73;;;4.90;99.90;;;;;;5052866;28;20201;-74
2022/12/05 05:01:56;;;;;;;39.50;18.50;;;5.00;99.90;;;;;;5043045;28;20599;-74
2022/12/05 05:04:44;;;;;;;33.15;18.40;;;5.10;99.90;;;;;;5054638;28;20220;-76
2022/12/05 05:07:30;;;;;;;33.83;18.05;;;5.10;99.90;;;;;;5047792;28;21068;-74
2022/12/05 05:10:21;;;;;;;32.03;17.90;;;5.20;99.90;;;;;;5047596;28;20563;-74
2022/12/05 05:13:07;;;;;;;33.63;17.00;;;5.30;99.90;;;;;;5052202;28;20232;-74
2022/12/05 05:15:52;;;;;;;34.08;17.90;;;5.30;99.90;;;;;;5047322;28;20575;-74
2022/12/05 05:18:39;;;;;;;34.03;17.95;;;5.40;99.90;;;;;;5048679;28;20621;-75
2022/12/05 05:21:27;;;;;;;25.85;14.07;;;5.40;99.90;;;;;;5046969;28;20307;-74
2022/12/05 05:24:14;;;;;;;27.67;15.73;;;5.40;99.90;;;;;;5047353;28;20806;-75
2022/12/05 05:26:59;;;;;;;29.30;16.55;;;5.30;99.90;;;;;;5052457;28;20281;-74
2022/12/05 05:29:45;;;;;;;37.20;19.58;;;5.40;99.90;;;;;;5046582;28;20205;-75
2022/12/05 05:32:32;;;;;;;33.05;17.75;;;5.30;99.90;;;;;;5046722;28;20279;-75
2022/12/05 05:35:20;;;;;;;27.38;16.83;;;5.40;99.90;;;;;;5053007;28;20331;-75
2022/12/05 05:38:06;;;;;;;31.35;17.77;;;5.40;99.90;;;;;;5053241;28;20212;-74
2022/12/05 05:40:51;;;;;;;34.17;17.92;;;5.40;99.90;;;;;;5039977;28;20591;-74
2022/12/05 05:43:37;;;;;;;25.38;14.80;;;5.50;99.90;;;;;;5050368;28;20200;-74
2022/12/05 05:46:24;;;;;;;26.02;16.30;;;5.50;99.90;;;;;;5046625;28;20200;-74
2022/12/05 05:49:10;;;;;;;26.27;15.15;;;5.50;99.90;;;;;;5049619;28;20714;-75
2022/12/05 05:51:57;;;;;;;27.45;15.05;;;5.50;99.90;;;;;;5049458;28;20709;-74
2022/12/05 05:54:43;;;;;;;31.05;16.75;;;5.40;99.90;;;;;;5045469;28;20702;-74
2022/12/05 05:57:28;;;;;;;31.05;15.88;;;5.40;99.90;;;;;;5047287;28;20276;-74
2022/12/05 06:00:15;;;;;;;33.35;17.23;;;5.40;99.90;;;;;;5044781;28;20212;-74
2022/12/05 06:03:01;;;;;;;25.98;15.15;;;5.40;99.90;;;;;;5056718;28;20223;-74
2022/12/05 06:05:56;;;;;;;27.60;15.80;;;5.50;99.90;;;;;;5050808;28;20287;-74
2022/12/05 06:08:44;;;;;;;28.00;17.55;;;5.40;99.90;;;;;;5047853;28;20200;-74
2022/12/05 06:11:30;;;;;;;33.03;17.02;;;5.40;99.90;;;;;;5054502;28;20601;-73
2022/12/05 06:14:15;;;;;;;26.60;15.23;;;5.30;99.90;;;;;;5057211;28;20538;-74
2022/12/05 06:17:01;;;;;;;26.05;14.80;;;5.40;99.90;;;;;;5051237;28;20335;-74
2022/12/05 06:19:47;;;;;;;28.90;14.75;;;5.40;99.90;;;;;;5048872;28;20287;-74
2022/12/05 06:22:33;;;;;;;25.48;15.88;;;5.50;99.90;;;;;;5053976;28;20338;-74
2022/12/05 06:25:20;;;;;;;21.23;13.00;;;5.50;99.90;;;;;;5060318;28;20220;-75
2022/12/05 06:28:05;;;;;;;24.20;14.55;;;5.60;99.90;;;;;;5049007;28;20290;-73
2022/12/05 06:30:51;;;;;;;23.95;14.95;;;5.60;99.90;;;;;;5039253;28;20239;-73
2022/12/05 06:33:37;;;;;;;22.40;15.73;;;5.60;99.90;;;;;;5045762;28;20208;-73
2022/12/05 06:36:23;;;;;;;26.80;16.30;;;5.50;99.90;;;;;;5050390;28;20201;-73
2022/12/05 06:39:08;;;;;;;25.30;15.05;;;5.40;99.90;;;;;;5043857;28;20212;-74
2022/12/05 06:41:55;;;;;;;23.55;14.43;;;5.40;99.90;;;;;;5051618;28;20236;-73
2022/12/05 06:44:41;;;;;;;25.35;14.27;;;5.50;99.90;;;;;;5050279;28;20205;-74
2022/12/05 06:47:27;;;;;;;22.30;14.40;;;5.50;99.90;;;;;;5046802;28;20681;-72
2022/12/05 06:50:12;;;;;;;22.65;14.38;;;5.50;99.90;;;;;;5046474;28;20287;-74
2022/12/05 06:52:58;;;;;;;22.73;14.40;;;5.50;99.90;;;;;;5052057;28;20240;-74
2022/12/05 06:55:44;;;;;;;27.90;16.30;;;5.50;99.90;;;;;;5045742;28;20319;-74
2022/12/05 06:58:31;;;;;;;24.95;14.90;;;5.50;99.90;;;;;;5050511;28;20857;-74
2022/12/05 07:04:23;;;;;;;24.27;14.10;;;5.60;99.90;;;;;;5057701;28;20251;-74
2022/12/05 07:07:09;;;;;;;20.73;14.35;;;5.60;99.90;;;;;;5061198;28;20201;-73
2022/12/05 07:09:54;;;;;;;23.05;14.70;;;5.60;99.90;;;;;;5054474;28;20286;-73
2022/12/05 07:12:40;;;;;;;23.88;14.23;;;5.60;99.90;;;;;;5040905;28;20237;-74
2022/12/05 07:15:26;;;;;;;24.77;14.88;;;5.60;99.90;;;;;;5052676;28;20212;-73
2022/12/05 07:18:12;;;;;;;23.50;17.63;;;5.50;99.90;;;;;;5052940;28;20200;-73
2022/12/05 07:20:58;;;;;;;23.73;16.40;;;5.50;99.90;;;;;;5056432;28;20220;-74
2022/12/05 07:23:46;;;;;;;30.10;19.35;;;5.40;99.90;;;;;;5051155;28;20200;-74
2022/12/05 07:26:32;;;;;;;25.48;16.20;;;5.40;99.90;;;;;;5062481;28;20196;-74
2022/12/05 07:29:18;;;;;;;25.55;15.57;;;5.40;99.90;;;;;;5047913;28;20205;-73
2022/12/05 07:32:05;;;;;;;25.77;15.82;;;5.40;99.90;;;;;;5060689;28;20220;-74
2022/12/05 07:34:51;;;;;;;22.05;14.05;;;5.50;99.90;;;;;;5065583;28;20207;-74
2022/12/05 07:37:37;;;;;;;25.85;16.10;;;5.50;99.90;;;;;;5071354;28;20203;-74
2022/12/05 07:40:22;;;;;;;20.70;14.15;;;5.50;99.90;;;;;;5055552;28;20270;-74
2022/12/05 07:43:08;;;;;;;29.88;14.55;;;5.50;99.90;;;;;;5052532;28;20220;-74
2022/12/05 07:45:54;;;;;;;25.08;14.55;;;5.50;99.90;;;;;;5066494;28;20225;-74
2022/12/05 07:48:41;;;;;;;28.85;17.55;;;5.50;99.90;;;;;;5058155;28;20284;-73
2022/12/05 07:51:26;;;;;;;25.27;15.65;;;5.50;99.90;;;;;;5055251;28;20319;-75
2022/12/05 07:54:12;;;;;;;37.67;21.05;;;5.50;99.90;;;;;;5067478;28;20205;-74
2022/12/05 07:56:57;;;;;;;30.48;18.67;;;5.50;99.90;;;;;;5064688;28;20331;-74
2022/12/05 07:59:43;;;;;;;30.40;17.02;;;5.50;99.90;;;;;;5068125;28;20404;-74
2022/12/05 08:02:29;;;;;;;26.98;17.10;;;5.50;99.90;;;;;;5047485;28;20358;-74
2022/12/05 08:05:16;;;;;;;33.30;18.45;;;5.40;99.90;;;;;;5064862;28;20200;-74
2022/12/05 08:08:01;;;;;;;37.83;18.45;;;5.30;99.90;;;;;;5071450;28;20609;-74
2022/12/05 08:10:47;;;;;;;39.90;22.10;;;5.30;99.90;;;;;;5061621;28;20572;-73
2022/12/05 08:13:33;;;;;;;32.88;19.92;;;5.30;99.90;;;;;;5091423;22;20301;-75
2022/12/05 08:16:21;;;;;;;33.50;19.58;;;5.30;99.90;;;;;;5084360;28;20199;-75
2022/12/05 08:19:08;;;;;;;31.40;19.13;;;5.30;99.90;;;;;;5084001;28;20207;-75
2022/12/05 08:21:55;;;;;;;42.03;21.92;;;5.30;99.90;;;;;;5067288;28;20705;-75
2022/12/05 08:24:41;;;;;;;35.95;20.02;;;5.20;99.90;;;;;;5078679;28;20312;-75
2022/12/05 08:27:27;;;;;;;33.33;21.70;;;5.30;99.90;;;;;;5073957;28;20664;-75
2022/12/05 08:30:13;;;;;;;40.85;20.92;;;5.30;99.90;;;;;;5072941;28;20205;-75
2022/12/05 08:32:58;;;;;;;34.88;20.13;;;5.30;99.90;;;;;;5062080;28;20217;-75
2022/12/05 08:35:44;;;;;;;36.40;21.27;;;5.40;99.90;;;;;;5072587;28;20204;-75
2022/12/05 08:38:31;;;;;;;33.53;20.15;;;5.30;99.90;;;;;;5071887;28;20257;-75
2022/12/05 08:41:18;;;;;;;37.42;18.80;;;5.40;99.90;;;;;;5062517;28;20225;-75
2022/12/05 08:44:07;;;;;;;39.97;20.58;;;5.50;99.90;;;;;;5079676;28;20707;-75
2022/12/05 08:46:52;;;;;;;35.80;22.00;;;5.60;99.90;;;;;;5072676;28;20204;-75
2022/12/05 08:49:38;;;;;;;34.22;19.17;;;5.60;99.90;;;;;;5080064;28;20340;-75
2022/12/05 08:52:23;;;;;;;33.00;19.25;;;5.70;99.90;;;;;;5072945;28;20235;-75
2022/12/05 08:55:10;;;;;;;32.38;17.73;;;5.70;99.90;;;;;;5082944;28;20302;-75
2022/12/05 08:57:56;;;;;;;29.92;18.45;;;5.80;99.90;;;;;;5077074;28;20695;-75
2022/12/05 09:00:42;;;;;;;31.88;17.77;;;5.90;99.90;;;;;;5080808;28;20295;-75
2022/12/05 09:03:27;;;;;;;31.95;17.65;;;6.00;99.90;;;;;;5088022;28;20223;-75
2022/12/05 09:06:15;;;;;;;34.05;19.23;;;6.00;99.90;;;;;;5068963;28;20401;-75
2022/12/05 09:09:03;;;;;;;34.47;19.27;;;5.90;99.90;;;;;;5080483;28;20207;-75
2022/12/05 09:11:51;;;;;;;36.75;20.38;;;5.90;99.90;;;;;;5061830;28;20239;-75
2022/12/05 09:14:36;;;;;;;38.05;20.10;;;5.90;99.90;;;;;;5083379;28;20677;-75
2022/12/05 09:17:23;;;;;;;30.15;19.00;;;5.90;99.90;;;;;;5074859;28;20199;-75
2022/12/05 09:20:12;;;;;;;32.85;19.58;;;5.90;99.90;;;;;;5074606;28;20200;-75
2022/12/05 09:22:58;;;;;;;41.30;21.23;;;5.80;99.90;;;;;;5082707;28;20652;-75
2022/12/05 09:25:43;;;;;;;34.58;19.42;;;5.80;99.90;;;;;;5082589;28;20199;-75
2022/12/05 09:28:30;;;;;;;31.67;18.90;;;5.80;99.90;;;;;;5077499;28;20196;-75
2022/12/05 09:31:18;;;;;;;32.42;19.33;;;5.70;99.90;;;;;;5069086;28;20273;-75
2022/12/05 09:34:04;;;;;;;35.88;20.90;;;5.80;99.90;;;;;;5078612;28;20215;-76
2022/12/05 09:36:50;;;;;;;37.65;21.45;;;5.90;99.90;;;;;;5062347;28;20519;-75
2022/12/05 09:39:36;;;;;;;38.00;21.63;;;5.90;99.90;;;;;;5063040;28;20517;-75
2022/12/05 09:42:38;;;;;;;32.08;21.38;;;5.80;99.90;;;;;;5064076;28;20724;-75
2022/12/05 09:45:32;;;;;;;35.97;21.50;;;5.90;99.90;;;;;;5063054;28;20273;-75
2022/12/05 09:48:20;;;;;;;32.50;19.52;;;6.00;99.90;;;;;;5076279;28;20199;-75
2022/12/05 09:51:09;;;;;;;36.85;18.75;;;6.10;99.90;;;;;;5067464;28;20205;-76
2022/12/05 09:53:55;;;;;;;33.60;18.48;;;6.00;99.90;;;;;;5073198;28;20275;-75
2022/12/05 09:56:43;;;;;;;28.80;17.40;;;6.10;99.90;;;;;;5067677;28;20204;-75
2022/12/05 09:59:28;;;;;;;30.83;17.95;;;6.00;99.90;;;;;;5066110;28;20192;-75
2022/12/05 10:02:26;;;;;;;31.75;18.92;;;6.10;99.90;;;;;;5064826;28;20235;-75
2022/12/05 10:05:18;;;;;;;30.88;19.20;;;6.10;99.90;;;;;;5067001;28;20703;-75
2022/12/05 10:08:13;;;;;;;31.50;19.42;;;6.10;99.90;;;;;;5067365;28;20275;-76
2022/12/05 10:11:03;;;;;;;28.60;17.73;;;6.10;99.90;;;;;;5057214;28;20201;-75
2022/12/05 10:13:55;;;;;;;35.00;20.80;;;6.20;99.90;;;;;;5074563;28;20577;-75
2022/12/05 10:16:48;;;;;;;30.90;18.38;;;6.30;99.90;;;;;;5085979;28;20276;-76
2022/12/05 10:19:40;;;;;;;29.65;17.55;;;6.30;99.90;;;;;;5078333;28;20212;-76
2022/12/05 10:22:34;;;;;;;27.58;17.48;;;6.30;99.90;;;;;;5077706;28;20223;-75
2022/12/05 10:25:21;;;;;;;27.50;18.10;;;6.20;99.90;;;;;;5065245;28;20204;-75
2022/12/05 10:28:15;;;;;;;28.08;17.00;;;6.10;99.90;;;;;;5071820;28;20677;-75
2022/12/05 10:31:05;;;;;;;33.10;20.33;;;6.20;99.90;;;;;;5068146;28;20254;-76
2022/12/05 10:33:57;;;;;;;28.77;19.10;;;6.10;99.90;;;;;;5077136;28;20211;-76
2022/12/05 10:36:54;;;;;;;30.83;18.92;;;6.00;99.90;;;;;;5072840;28;20272;-76
2022/12/05 10:39:40;;;;;;;29.00;17.20;;;6.00;99.90;;;;;;5063926;28;20272;-75
2022/12/05 10:42:29;;;;;;;33.17;20.05;;;5.90;99.90;;;;;;5065951;28;20282;-76
2022/12/05 10:45:20;;;;;;;29.75;18.33;;;5.90;99.90;;;;;;5060534;28;20282;-75
2022/12/05 10:48:09;;;;;;;33.33;20.20;;;5.90;99.90;;;;;;5066354;28;20279;-76
2022/12/05 10:50:57;;;;;;;29.65;18.60;;;5.90;99.90;;;;;;5075847;28;20471;-76
2022/12/05 10:53:48;;;;;;;32.70;18.30;;;6.00;99.90;;;;;;5063320;28;20467;-76
2022/12/05 10:56:43;;;;;;;31.77;19.00;;;5.90;99.90;;;;;;5063584;28;20228;-76
2022/12/05 10:59:45;;;;;;;32.58;18.42;;;6.00;99.90;;;;;;5072877;28;20333;-76
2022/12/05 11:02:33;;;;;;;30.85;18.13;;;6.00;99.90;;;;;;5075994;28;20239;-75
2022/12/05 11:05:29;;;;;;;33.47;19.92;;;6.00;99.90;;;;;;5072770;28;20707;-76
2022/12/05 11:08:22;;;;;;;31.88;19.20;;;5.90;99.90;;;;;;5079083;28;20300;-76
2022/12/05 11:11:21;;;;;;;27.20;17.45;;;5.90;99.90;;;;;;5072531;28;20250;-75
2022/12/05 11:14:20;;;;;;;31.65;17.80;;;6.00;99.90;;;;;;5069530;28;20294;-75
2022/12/05 11:17:06;;;;;;;32.90;16.70;;;6.00;99.90;;;;;;5081872;28;20692;-75
2022/12/05 11:19:52;;;;;;;30.05;17.23;;;6.00;99.90;;;;;;5085251;28;20261;-75
2022/12/05 11:22:37;;;;;;;26.25;16.88;;;6.00;99.90;;;;;;5069705;28;20285;-75
2022/12/05 11:25:28;;;;;;;34.25;16.88;;;6.00;99.90;;;;;;5077584;28;20966;-75
2022/12/05 11:28:31;;;;;;;26.50;16.30;;;5.90;99.90;;;;;;5070858;28;20206;-75
2022/12/05 11:31:27;;;;;;;25.75;16.42;;;5.90;99.90;;;;;;5068455;28;20326;-75
2022/12/05 11:34:17;;;;;;;34.38;17.50;;;5.90;99.90;;;;;;5075674;28;20325;-75
2022/12/05 11:37:09;;;;;;;33.10;18.88;;;5.90;99.90;;;;;;5084035;28;20200;-76
2022/12/05 11:39:55;;;;;;;28.30;17.05;;;5.90;99.90;;;;;;5074704;28;20208;-76
2022/12/05 11:42:47;;;;;;;28.55;16.83;;;6.00;99.90;;;;;;5075277;28;20224;-76
2022/12/05 11:45:50;;;;;;;34.28;18.10;;;6.10;99.90;;;;;;5081475;28;20672;-76
2022/12/05 11:48:58;;;;;;;28.27;16.80;;;6.20;99.90;;;;;;5079316;28;20200;-75
2022/12/05 11:51:47;;;;;;;31.30;17.85;;;6.20;99.90;;;;;;5076654;28;20236;-75
2022/12/05 11:54:54;;;;;;;30.63;18.00;;;6.30;99.90;;;;;;5074905;28;20208;-76
2022/12/05 11:58:11;;;;;;;27.08;17.00;;;6.20;99.90;;;;;;5079036;28;20267;-75
2022/12/05 12:01:10;;;;;;;31.73;17.17;;;6.20;99.90;;;;;;5084206;28;20199;-75
2022/12/05 12:04:42;;;;;;;28.55;16.33;;;6.20;99.90;;;;;;5066895;28;20230;-76
2022/12/05 12:07:45;;;;;;;31.70;18.67;;;6.30;99.90;;;;;;5076221;28;20286;-75
2022/12/05 12:10:41;;;;;;;29.23;16.88;;;6.30;99.90;;;;;;5076474;28;20624;-75
2022/12/05 12:13:41;;;;;;;28.42;17.10;;;6.40;99.90;;;;;;5061854;28;20335;-75
2022/12/05 12:16:39;;;;;;;27.67;16.70;;;6.40;99.90;;;;;;5076963;28;20196;-76
2022/12/05 12:19:37;;;;;;;29.55;17.02;;;6.40;99.90;;;;;;5071491;28;20208;-75
2022/12/05 12:22:45;;;;;;;31.75;17.75;;;6.20;99.90;;;;;;5056094;28;20228;-75
2022/12/05 12:25:41;;;;;;;28.10;17.50;;;6.20;99.90;;;;;;5082907;28;20208;-76
2022/12/05 12:28:38;;;;;;;29.15;16.30;;;6.30;99.90;;;;;;5078946;28;20589;-76
2022/12/05 12:31:37;;;;;;;29.58;16.67;;;6.30;99.90;;;;;;5075671;28;20247;-76
2022/12/05 12:34:37;;;;;;;30.60;15.85;;;6.30;99.90;;;;;;5077261;28;20574;-75
2022/12/05 12:37:34;;;;;;;27.77;17.13;;;6.40;99.90;;;;;;5075359;28;20200;-75
2022/12/05 12:40:22;;;;;;;30.08;17.25;;;6.40;99.90;;;;;;5078520;28;20285;-75
2022/12/05 12:43:20;;;;;;;26.88;16.52;;;6.30;99.90;;;;;;5065735;28;20219;-75
2022/12/05 12:46:16;;;;;;;32.05;17.23;;;6.30;99.90;;;;;;5074549;28;20975;-76
2022/12/05 12:49:30;;;;;;;34.20;18.00;;;6.30;99.90;;;;;;5080713;28;20208;-76
2022/12/05 12:52:20;;;;;;;23.70;16.15;;;6.30;99.90;;;;;;5063286;28;20220;-76
2022/12/05 12:55:20;;;;;;;28.95;17.60;;;6.40;99.90;;;;;;5079817;28;20219;-76
2022/12/05 12:58:14;;;;;;;31.42;18.00;;;6.30;99.90;;;;;;5079392;28;20200;-75
2022/12/05 13:01:07;;;;;;;29.92;18.02;;;6.30;99.90;;;;;;5059850;28;20200;-75
2022/12/05 13:04:01;;;;;;;26.58;16.90;;;6.30;99.90;;;;;;5080833;28;20735;-75
2022/12/05 13:06:53;;;;;;;24.80;16.02;;;6.20;99.90;;;;;;5056869;28;20212;-75
2022/12/05 13:09:43;;;;;;;26.13;16.30;;;6.20;99.90;;;;;;5063398;28;20201;-75
2022/12/05 13:12:32;;;;;;;26.55;16.67;;;6.30;99.90;;;;;;5055282;28;20228;-75
2022/12/05 13:15:24;;;;;;;25.63;16.30;;;6.40;99.90;;;;;;5060744;28;20209;-75
2022/12/05 13:18:16;;;;;;;27.30;17.73;;;6.50;99.90;;;;;;5072567;28;20196;-76
2022/12/05 13:21:05;;;;;;;24.83;17.05;;;6.50;99.90;;;;;;5073772;28;20689;-75
2022/12/05 13:23:55;;;;;;;26.70;17.40;;;6.50;99.90;;;;;;5064625;28;20314;-75
2022/12/05 13:26:48;;;;;;;32.30;19.48;;;6.50;99.90;;;;;;5067479;28;20212;-75
2022/12/05 13:29:36;;;;;;;27.92;17.05;;;6.50;99.90;;;;;;5061330;28;20677;-75
2022/12/05 13:32:31;;;;;;;30.15;17.73;;;6.50;99.90;;;;;;5072014;28;20216;-75
2022/12/05 13:44:50;;;;;;;28.48;18.00;;;6.60;99.90;;;;;;5072516;28;20211;-75
2022/12/05 13:47:48;;;;;;;31.20;16.52;;;6.70;99.90;;;;;;5072788;28;20212;-75
2022/12/05 13:50:42;;;;;;;30.92;17.80;;;6.70;99.90;;;;;;5063959;28;20331;-75
2022/12/05 13:53:36;;;;;;;24.75;17.15;;;6.70;99.90;;;;;;5070171;28;20212;-75
2022/12/05 13:56:27;;;;;;;25.73;17.05;;;6.70;99.90;;;;;;5077444;28;20296;-75
2022/12/05 13:59:54;;;;;;;27.23;16.83;;;6.70;99.90;;;;;;5068650;28;20593;-75
2022/12/05 14:02:54;;;;;;;25.20;16.98;;;6.70;99.90;;;;;;5074092;28;20723;-75
2022/12/05 14:05:49;;;;;;;26.15;17.80;;;6.70;99.90;;;;;;5076907;28;20563;-75
2022/12/05 14:08:54;;;;;;;22.27;15.88;;;6.60;99.90;;;;;;5075090;28;20208;-75
2022/12/05 14:11:39;;;;;;;22.80;15.15;;;6.60;99.90;;;;;;5060683;28;20204;-75
2022/12/05 14:15:00;;;;;;;21.77;15.50;;;6.60;99.90;;;;;;5111335;22;20289;-76
2022/12/05 14:17:46;;;;;;;26.48;17.50;;;6.60;99.90;;;;;;5088049;28;20310;-76
2022/12/05 14:20:47;;;;;;;23.70;16.15;;;6.70;99.90;;;;;;5084516;28;20338;-77
2022/12/05 14:23:55;;;;;;;26.58;17.25;;;6.60;99.90;;;;;;5094092;28;20229;-77
2022/12/05 14:26:58;;;;;;;23.67;15.15;;;6.60;99.90;;;;;;5098376;28;20202;-77
2022/12/05 14:30:00;;;;;;;23.35;14.43;;;6.50;99.90;;;;;;5092548;28;20616;-76
2022/12/05 14:32:47;;;;;;;19.85;12.95;;;6.50;99.90;;;;;;5090477;28;20215;-77
2022/12/05 14:35:44;;;;;;;23.52;14.50;;;6.60;99.90;;;;;;5089461;28;20258;-77
2022/12/05 14:38:32;;;;;;;23.70;13.77;;;6.50;99.90;;;;;;5089370;28;20330;-76
2022/12/05 14:41:35;;;;;;;21.17;13.20;;;6.40;99.90;;;;;;5098747;28;20199;-77
2022/12/05 14:44:21;;;;;;;23.00;13.45;;;6.40;99.90;;;;;;5097913;28;20227;-77
2022/12/05 14:47:07;;;;;;;25.40;14.85;;;6.40;99.90;;;;;;5100776;28;20710;-77
2022/12/05 14:50:00;;;;;;;20.33;13.95;;;6.40;99.90;;;;;;5083078;28;20208;-76
2022/12/05 14:53:30;;;;;;;20.63;13.15;;;6.40;99.90;;;;;;5087309;28;20235;-77